• Join FlightAware (Why Join?)
  • Login
  • US Flag 
09:17PM EDT


 

Airport Tracker/Info


-or-


 

Live Flight TrackerFlight Track Log ✈ CTL312 ✈ 14-Jun-2013 ✈ KBKL - KMBS

Flight Track Log - Related Links

Times and Time Zones

All times are in EDT time to prevent confusion due to time zone crossing. See the CTL312 flight status page for this flight to view local times or setup timezone preferences in your user account.

Time Position Orientation Groundspeed Altitude Reporting Facility
EDT Latitude Longitude Course Direction KTS MPH feet Rate Location/Type
07:08PM 41.5125 -81.6978 328° Northwest 108 124 900  Level Cleveland Center
07:09PM 41.5394 -81.7206 328° Northwest 135 155 1,700 720 Climbing Cleveland Center
07:10PM 41.5644 -81.7319 341° North 143 165 2,100 480 Climbing Cleveland Center
07:11PM 41.6039 -81.7522 339° North 147 169 2,600 480 Climbing Cleveland Center
07:12PM 41.6433 -81.7697 342° North 147 169 3,100 420 Climbing Cleveland Center
07:13PM 41.6681 -81.7811 341° North 152 175 3,400 420 Climbing Cleveland Center
07:14PM 41.6989 -81.8178 318° Northwest 152 175 3,900 480 Climbing Cleveland Center
07:15PM 41.7297 -81.8547 318° Northwest 152 175 4,400 540 Climbing Cleveland Center
07:16PM 41.7608 -81.8886 321° Northwest 152 175 5,000 540 Climbing Cleveland Center
07:17PM 41.7936 -81.9283 318° Northwest 147 169 5,500 480 Climbing Cleveland Center
07:18PM 41.8225 -81.9625 319° Northwest 142 163 6,000 180 Climbing Cleveland Center
07:19PM 41.8553 -82.0022 318° Northwest 148 170 5,900 -60 Descending Cleveland Center
07:20PM 41.8861 -82.0419 316° Northwest 154 177 5,900  Level Cleveland Center
07:21PM 41.9189 -82.0789 320° Northwest 154 177 6,000  Climbing Cleveland Center
07:22PM 41.9497 -82.1158 318° Northwest 154 177 5,900 -60 Descending Cleveland Center
07:23PM 41.9825 -82.1531 320° Northwest 154 177 5,900  Level Cleveland Center
07:24PM 42.0175 -82.1931 320° Northwest 159 183 5,900  Level Cleveland Center
07:25PM 42.0442 -82.2272 316° Northwest 159 183 5,900  Level Cleveland Center
07:26PM 42.0811 -82.2672 321° Northwest 159 183 5,900  Level Cleveland Center
07:27PM 42.1097 -82.3017 318° Northwest 158 182 5,900  Level Cleveland Center
07:27PM 42.1322 -82.3331 314° West 149 171 5,900  Level Cleveland Center
07:28PM 42.1425 -82.3444 321° Northwest 159 183 5,900  Level Cleveland Center
07:28PM 42.1589 -82.3619 322° Northwest 152 175 5,900  Level Cleveland Center
07:29PM 42.1731 -82.3819 314° West 154 177 5,900 60 Level Cleveland Center
07:29PM 42.1894 -82.3992 322° Northwest 152 175 6,000  Climbing Cleveland Center
07:30PM 42.2058 -82.4219 314° West 154 177 5,900 -120 Descending Cleveland Center
07:30PM 42.2264 -82.4394 328° Northwest 154 177 5,900  Level Cleveland Center
07:31PM 42.2364 -82.4594 304° West 149 171 5,900  Level Cleveland Center
07:31PM 42.2550 -82.4794 322° Northwest 153 176 5,900  Level Cleveland Center
07:32PM 42.2692 -82.4969 318° Northwest 149 171 5,900  Level Cleveland Center
07:32PM 42.2856 -82.5169 318° Northwest 153 176 5,900  Level Cleveland Center
07:33PM 42.2997 -82.5314 323° Northwest 154 177 5,900  Level Cleveland Center
07:33PM 42.3181 -82.5572 314° West 153 176 5,900  Level Cleveland Center
07:34PM 42.3303 -82.5744 314° West 154 177 5,900  Level Cleveland Center
07:34PM 42.3447 -82.5947 314° West 153 176 5,900  Level Cleveland Center
07:35PM 42.3547 -82.6203 298° West 154 177 5,900  Level Cleveland Center
07:35PM 42.3667 -82.6458 302° West 153 176 5,900  Level Cleveland Center
07:36PM 42.3789 -82.6661 309° West 149 171 5,900  Level Cleveland Center
07:36PM 42.3908 -82.6917 302° West 150 173 5,900  Level Cleveland Center
07:37PM 42.4172 -82.7347 310° West 153 176 5,900  Level Cleveland Center
07:38PM 42.4475 -82.7753 315° West 149 171 5,900  Level Cleveland Center
07:39PM 42.4803 -82.8131 320° Northwest 153 176 5,900  Level Cleveland Center
07:40PM 42.5128 -82.8536 317° Northwest 153 176 5,900  Level Cleveland Center
07:41PM 42.5433 -82.8911 318° Northwest 153 176 5,900  Level Cleveland Center
07:42PM 42.5758 -82.9347 315° West 151 174 5,900  Level Cleveland Center
07:43PM 42.6083 -82.9697 322° Northwest 153 176 5,900  Level Cleveland Center
07:44PM 42.6389 -83.0106 315° West 154 177 5,900  Level Cleveland Center
07:45PM 42.6733 -83.0514 319° Northwest 154 177 5,900  Level Cleveland Center
07:46PM 42.7058 -83.0922 317° Northwest 155 178 5,900  Level Cleveland Center
07:47PM 42.7406 -83.1331 319° Northwest 156 180 5,900  Level Cleveland Center
07:49PM 42.7773 -83.1719 322° Northwest  Level FlightAware Approximate
07:56PM 42.9950 -83.4187 319° Northwest  Level FlightAware Approximate
07:57PM 43.0255 -83.4549 319° Northwest  Level FlightAware Approximate
07:58PM 43.0560 -83.4912 319° Northwest  Level FlightAware Approximate
07:59PM 43.0864 -83.5275 319° Northwest  Level FlightAware Approximate
08:00PM 43.1169 -83.5639 319° Northwest  Level FlightAware Approximate
08:01PM 43.1473 -83.6003 319° Northwest  Level FlightAware Approximate
08:02PM 43.1778 -83.6367 319° Northwest  Level FlightAware Approximate
08:03PM 43.2082 -83.6732 319° Northwest  Level FlightAware Approximate
08:04PM 43.2382 -83.7103 318° Northwest  Level FlightAware Approximate
08:05PM 43.2681 -83.7476 318° Northwest  Level FlightAware Approximate
08:06PM 43.2975 -83.7856 316° Northwest  Level FlightAware Approximate
08:07PM 43.3265 -83.8243 316° Northwest  Level FlightAware Approximate
08:08PM 43.3567 -83.8612 319° Northwest  Level FlightAware Approximate
08:09PM 43.3871 -83.8977 319° Northwest  Level FlightAware Approximate
08:10PM 43.4176 -83.9343 319° Northwest  Level FlightAware Approximate
08:11PM 43.4481 -83.9708 319° Northwest  Level FlightAware Approximate
08:12PM 43.4785 -84.0074 319° Northwest  Level FlightAware Approximate
08:13PM 43.5067 -84.0468 305° West  Level FlightAware Approximate
08:14PM 43.5167 -84.0667 305° West  Level FlightAware Approximate
08:15PM 43.5329 -84.0796 305° West  Level Estimated
08:16PM 43.5329 -84.0796 305° West  Level Estimated
08:17PM 43.5329 -84.0796 305° West  Level Estimated
08:18PM 43.5329 -84.0796 305° West  Level Estimated
08:19PM 43.5329 -84.0796 305° West  Level Estimated
08:20PM 43.5329 -84.0796 305° West  Level Estimated